sensor_id;sensor_type;location;lat;lon;timestamp;pressure;altitude;pressure_sealevel;temperature;humidity
36600;BME280;35385;55.668;37.508;2023-04-05T00:00:48;99482.88;;;9.21;100.00
36600;BME280;35385;55.668;37.508;2023-04-05T00:01:49;99481.63;;;9.25;100.00
36600;BME280;35385;55.668;37.508;2023-04-05T00:02:50;99449.78;;;9.01;100.00
36600;BME280;35385;55.668;37.508;2023-04-05T00:03:52;99500.16;;;9.27;100.00
36600;BME280;35385;55.668;37.508;2023-04-05T00:04:53;99485.03;;;9.27;100.00
36600;BME280;35385;55.668;37.508;2023-04-05T00:05:57;99494.25;;;9.23;100.00
36600;BME280;35385;55.668;37.508;2023-04-05T00:06:58;99487.34;;;9.20;100.00
36600;BME280;35385;55.668;37.508;2023-04-05T00:07:59;99494.94;;;9.25;100.00
36600;BME280;35385;55.668;37.508;2023-04-05T00:09:02;99494.38;;;9.21;100.00
36600;BME280;35385;55.668;37.508;2023-04-05T00:10:03;99501.41;;;9.23;100.00
36600;BME280;35385;55.668;37.508;2023-04-05T00:11:04;99493.88;;;9.16;100.00
36600;BME280;35385;55.668;37.508;2023-04-05T00:12:05;99497.03;;;9.21;100.00
36600;BME280;35385;55.668;37.508;2023-04-05T00:13:05;99496.44;;;9.18;100.00
36600;BME280;35385;55.668;37.508;2023-04-05T00:14:06;99498.34;;;9.16;100.00
36600;BME280;35385;55.668;37.508;2023-04-05T00:15:07;99474.63;;;9.02;100.00
36600;BME280;35385;55.668;37.508;2023-04-05T00:16:07;99485.50;;;8.99;100.00
36600;BME280;35385;55.668;37.508;2023-04-05T00:17:08;99491.47;;;9.02;100.00
36600;BME280;35385;55.668;37.508;2023-04-05T00:18:09;99487.72;;;9.05;100.00
36600;BME280;35385;55.668;37.508;2023-04-05T00:19:20;99494.50;;;9.09;100.00
36600;BME280;35385;55.668;37.508;2023-04-05T00:20:22;99481.19;;;9.09;100.00
36600;BME280;35385;55.668;37.508;2023-04-05T00:21:23;99492.91;;;9.17;100.00
36600;BME280;35385;55.668;37.508;2023-04-05T00:22:27;99443.13;;;8.96;100.00
36600;BME280;35385;55.668;37.508;2023-04-05T00:23:31;99492.69;;;9.20;100.00
36600;BME280;35385;55.668;37.508;2023-04-05T00:24:38;99420.88;;;8.74;100.00
36600;BME280;35385;55.668;37.508;2023-04-05T00:25:42;99492.78;;;9.19;100.00
36600;BME280;35385;55.668;37.508;2023-04-05T00:26:42;99497.38;;;9.17;100.00
36600;BME280;35385;55.668;37.508;2023-04-05T00:27:43;99484.06;;;9.06;100.00
36600;BME280;35385;55.668;37.508;2023-04-05T00:28:43;99487.81;;;9.03;100.00
36600;BME280;35385;55.668;37.508;2023-04-05T00:29:44;99482.00;;;8.98;100.00
36600;BME280;35385;55.668;37.508;2023-04-05T00:30:45;99477.28;;;8.91;100.00
36600;BME280;35385;55.668;37.508;2023-04-05T00:31:45;99492.88;;;8.95;100.00
36600;BME280;35385;55.668;37.508;2023-04-05T00:32:52;99332.69;;;7.99;100.00
36600;BME280;35385;55.668;37.508;2023-04-05T00:33:53;99491.94;;;8.96;100.00
36600;BME280;35385;55.668;37.508;2023-04-05T00:34:53;99485.28;;;8.91;100.00
36600;BME280;35385;55.668;37.508;2023-04-05T00:35:54;99446.66;;;8.74;100.00
36600;BME280;35385;55.668;37.508;2023-04-05T00:36:54;99469.03;;;8.82;100.00
36600;BME280;35385;55.668;37.508;2023-04-05T00:37:55;99495.09;;;9.01;100.00
36600;BME280;35385;55.668;37.508;2023-04-05T00:38:56;99487.56;;;8.95;100.00
36600;BME280;35385;55.668;37.508;2023-04-05T00:39:56;99371.91;;;8.20;100.00
36600;BME280;35385;55.668;37.508;2023-04-05T00:40:57;99489.66;;;8.92;100.00
36600;BME280;35385;55.668;37.508;2023-04-05T00:41:57;99467.72;;;8.77;100.00
36600;BME280;35385;55.668;37.508;2023-04-05T00:42:58;99501.50;;;8.88;100.00
36600;BME280;35385;55.668;37.508;2023-04-05T00:43:58;99508.28;;;8.92;100.00
36600;BME280;35385;55.668;37.508;2023-04-05T00:44:59;99501.38;;;8.89;100.00
36600;BME280;35385;55.668;37.508;2023-04-05T00:46:04;99494.97;;;8.92;100.00
36600;BME280;35385;55.668;37.508;2023-04-05T00:47:06;99504.78;;;8.91;100.00
36600;BME280;35385;55.668;37.508;2023-04-05T00:48:10;99490.47;;;8.81;100.00
36600;BME280;35385;55.668;37.508;2023-04-05T00:49:11;99501.00;;;8.82;100.00
36600;BME280;35385;55.668;37.508;2023-04-05T00:50:12;99455.22;;;8.55;100.00
36600;BME280;35385;55.668;37.508;2023-04-05T00:51:12;99458.50;;;8.59;100.00
36600;BME280;35385;55.668;37.508;2023-04-05T00:52:14;99461.50;;;8.54;100.00
36600;BME280;35385;55.668;37.508;2023-04-05T00:53:18;99493.38;;;8.78;100.00
36600;BME280;35385;55.668;37.508;2023-04-05T00:54:19;99502.22;;;8.78;100.00
36600;BME280;35385;55.668;37.508;2023-04-05T00:55:20;99501.00;;;8.71;100.00
36600;BME280;35385;55.668;37.508;2023-04-05T00:56:21;99497.88;;;8.77;100.00
36600;BME280;35385;55.668;37.508;2023-04-05T00:57:24;99451.56;;;8.45;100.00
36600;BME280;35385;55.668;37.508;2023-04-05T00:58:25;99497.81;;;8.66;100.00
36600;BME280;35385;55.668;37.508;2023-04-05T00:59:27;99500.13;;;8.71;100.00
36600;BME280;35385;55.668;37.508;2023-04-05T01:00:30;99510.78;;;8.71;100.00
36600;BME280;35385;55.668;37.508;2023-04-05T01:01:31;99450.09;;;8.41;100.00
36600;BME280;35385;55.668;37.508;2023-04-05T01:02:35;99500.75;;;8.74;100.00
36600;BME280;35385;55.668;37.508;2023-04-05T01:03:42;99507.78;;;8.75;100.00
36600;BME280;35385;55.668;37.508;2023-04-05T01:04:46;99507.06;;;8.84;100.00
36600;BME280;35385;55.668;37.508;2023-04-05T01:07:37;99513.47;;;8.82;100.00
36600;BME280;35385;55.668;37.508;2023-04-05T01:08:48;99520.75;;;8.80;100.00
36600;BME280;35385;55.668;37.508;2023-04-05T01:09:56;99521.84;;;8.77;100.00
36600;BME280;35385;55.668;37.508;2023-04-05T01:11:01;99514.53;;;8.68;100.00
36600;BME280;35385;55.668;37.508;2023-04-05T01:12:06;99499.91;;;8.63;100.00
36600;BME280;35385;55.668;37.508;2023-04-05T01:13:08;99510.44;;;8.64;100.00
36600;BME280;35385;55.668;37.508;2023-04-05T01:14:08;99516.50;;;8.77;100.00
36600;BME280;35385;55.668;37.508;2023-04-05T01:15:10;99518.16;;;8.67;100.00
36600;BME280;35385;55.668;37.508;2023-04-05T01:16:12;99515.75;;;8.64;100.00
36600;BME280;35385;55.668;37.508;2023-04-05T01:17:12;99471.28;;;8.42;100.00
36600;BME280;35385;55.668;37.508;2023-04-05T01:18:13;99515.75;;;8.64;100.00
36600;BME280;35385;55.668;37.508;2023-04-05T01:19:14;99513.44;;;8.60;100.00
36600;BME280;35385;55.668;37.508;2023-04-05T01:20:15;99510.66;;;8.61;100.00
36600;BME280;35385;55.668;37.508;2023-04-05T01:21:51;99511.97;;;8.67;100.00
36600;BME280;35385;55.668;37.508;2023-04-05T01:24:38;99523.25;;;8.59;100.00
36600;BME280;35385;55.668;37.508;2023-04-05T01:26:01;99505.56;;;8.58;100.00
36600;BME280;35385;55.668;37.508;2023-04-05T01:27:15;99483.97;;;8.39;100.00
36600;BME280;35385;55.668;37.508;2023-04-05T01:29:46;99493.09;;;8.47;100.00
36600;BME280;35385;55.668;37.508;2023-04-05T01:31:14;99510.28;;;8.66;100.00
36600;BME280;35385;55.668;37.508;2023-04-05T01:32:31;99502.56;;;8.63;100.00
36600;BME280;35385;55.668;37.508;2023-04-05T01:36:35;99493.44;;;8.54;100.00
36600;BME280;35385;55.668;37.508;2023-04-05T01:37:39;99512.19;;;8.52;100.00
36600;BME280;35385;55.668;37.508;2023-04-05T01:38:40;99509.69;;;8.51;100.00
36600;BME280;35385;55.668;37.508;2023-04-05T01:39:43;99510.97;;;8.45;100.00
36600;BME280;35385;55.668;37.508;2023-04-05T01:40:47;99458.97;;;8.18;100.00
36600;BME280;35385;55.668;37.508;2023-04-05T01:41:48;99506.38;;;8.36;100.00
36600;BME280;35385;55.668;37.508;2023-04-05T01:42:48;99496.06;;;8.32;100.00
36600;BME280;35385;55.668;37.508;2023-04-05T01:43:49;99484.03;;;8.26;100.00
36600;BME280;35385;55.668;37.508;2023-04-05T01:44:50;99512.56;;;8.48;100.00
36600;BME280;35385;55.668;37.508;2023-04-05T01:45:51;99486.34;;;8.31;100.00
36600;BME280;35385;55.668;37.508;2023-04-05T01:46:51;99513.38;;;8.37;100.00
36600;BME280;35385;55.668;37.508;2023-04-05T01:47:52;99509.41;;;8.43;100.00
36600;BME280;35385;55.668;37.508;2023-04-05T01:48:52;99513.13;;;8.40;100.00
36600;BME280;35385;55.668;37.508;2023-04-05T01:49:53;99511.56;;;8.38;100.00
36600;BME280;35385;55.668;37.508;2023-04-05T01:50:53;99508.66;;;8.41;100.00
36600;BME280;35385;55.668;37.508;2023-04-05T01:51:54;99507.81;;;8.40;100.00
36600;BME280;35385;55.668;37.508;2023-04-05T01:52:54;99501.75;;;8.38;100.00
36600;BME280;35385;55.668;37.508;2023-04-05T01:53:55;99467.91;;;8.16;100.00
36600;BME280;35385;55.668;37.508;2023-04-05T01:54:55;99513.88;;;8.42;100.00
36600;BME280;35385;55.668;37.508;2023-04-05T01:56:02;99512.06;;;8.43;100.00
36600;BME280;35385;55.668;37.508;2023-04-05T01:57:03;99500.19;;;8.36;100.00
36600;BME280;35385;55.668;37.508;2023-04-05T01:58:04;99510.84;;;8.36;100.00
36600;BME280;35385;55.668;37.508;2023-04-05T01:59:05;99501.63;;;8.40;100.00
36600;BME280;35385;55.668;37.508;2023-04-05T02:00:06;99512.06;;;8.43;100.00
36600;BME280;35385;55.668;37.508;2023-04-05T02:01:07;99512.06;;;8.43;100.00
36600;BME280;35385;55.668;37.508;2023-04-05T02:02:07;99470.34;;;8.20;100.00
36600;BME280;35385;55.668;37.508;2023-04-05T02:03:08;99455.06;;;8.10;100.00
36600;BME280;35385;55.668;37.508;2023-04-05T02:04:08;99502.13;;;8.34;100.00
36600;BME280;35385;55.668;37.508;2023-04-05T02:05:09;99506.72;;;8.32;100.00
36600;BME280;35385;55.668;37.508;2023-04-05T02:06:10;99510.22;;;8.32;100.00
36600;BME280;35385;55.668;37.508;2023-04-05T02:07:10;99520.88;;;8.32;100.00
36600;BME280;35385;55.668;37.508;2023-04-05T02:08:11;99520.00;;;8.32;100.00
36600;BME280;35385;55.668;37.508;2023-04-05T02:09:12;99430.19;;;7.76;100.00
36600;BME280;35385;55.668;37.508;2023-04-05T02:10:13;99471.50;;;8.04;100.00
36600;BME280;35385;55.668;37.508;2023-04-05T02:11:15;99430.28;;;7.75;100.00
36600;BME280;35385;55.668;37.508;2023-04-05T02:12:15;99521.16;;;8.28;100.00
36600;BME280;35385;55.668;37.508;2023-04-05T02:13:16;99517.53;;;8.29;100.00
36600;BME280;35385;55.668;37.508;2023-04-05T02:14:16;99511.50;;;8.27;100.00
36600;BME280;35385;55.668;37.508;2023-04-05T02:15:37;99518.41;;;8.29;100.00
36600;BME280;35385;55.668;37.508;2023-04-05T02:16:37;99514.69;;;8.32;100.00
36600;BME280;35385;55.668;37.508;2023-04-05T02:17:38;99483.03;;;8.16;100.00
36600;BME280;35385;55.668;37.508;2023-04-05T02:18:38;99490.28;;;8.14;100.00
36600;BME280;35385;55.668;37.508;2023-04-05T02:19:39;99508.94;;;8.25;100.00
36600;BME280;35385;55.668;37.508;2023-04-05T02:20:40;99522.56;;;8.33;100.00
36600;BME280;35385;55.668;37.508;2023-04-05T02:21:41;99527.78;;;8.35;100.00
36600;BME280;35385;55.668;37.508;2023-04-05T02:22:41;99528.94;;;8.31;100.00
36600;BME280;35385;55.668;37.508;2023-04-05T02:23:44;99532.78;;;8.27;100.00
36600;BME280;35385;55.668;37.508;2023-04-05T02:24:44;99529.63;;;8.22;100.00
36600;BME280;35385;55.668;37.508;2023-04-05T02:25:45;99537.84;;;8.19;100.00
36600;BME280;35385;55.668;37.508;2023-04-05T02:26:46;99484.25;;;7.88;100.00
36600;BME280;35385;55.668;37.508;2023-04-05T02:27:47;99528.41;;;8.26;100.00
36600;BME280;35385;55.668;37.508;2023-04-05T02:28:47;99545.34;;;8.25;100.00
36600;BME280;35385;55.668;37.508;2023-04-05T02:29:48;99530.22;;;8.25;100.00
36600;BME280;35385;55.668;37.508;2023-04-05T02:30:48;99532.28;;;8.22;100.00
36600;BME280;35385;55.668;37.508;2023-04-05T02:31:49;99531.06;;;8.26;100.00
36600;BME280;35385;55.668;37.508;2023-04-05T02:32:49;99521.97;;;8.17;100.00
36600;BME280;35385;55.668;37.508;2023-04-05T02:33:50;99496.13;;;7.95;100.00
36600;BME280;35385;55.668;37.508;2023-04-05T02:34:51;99527.53;;;8.14;100.00
36600;BME280;35385;55.668;37.508;2023-04-05T02:35:52;99504.84;;;7.97;100.00
36600;BME280;35385;55.668;37.508;2023-04-05T02:36:53;99532.59;;;8.06;100.00
36600;BME280;35385;55.668;37.508;2023-04-05T02:37:53;99538.28;;;8.12;100.00
36600;BME280;35385;55.668;37.508;2023-04-05T02:38:55;99533.69;;;8.14;100.00
36600;BME280;35385;55.668;37.508;2023-04-05T02:39:56;99540.94;;;8.12;100.00
36600;BME280;35385;55.668;37.508;2023-04-05T02:40:56;99535.00;;;8.09;100.00
36600;BME280;35385;55.668;37.508;2023-04-05T02:41:57;99537.53;;;8.10;100.00
36600;BME280;35385;55.668;37.508;2023-04-05T02:42:58;99546.03;;;8.15;100.00
36600;BME280;35385;55.668;37.508;2023-04-05T02:43:59;99534.88;;;8.10;100.00
36600;BME280;35385;55.668;37.508;2023-04-05T02:44:59;99540.09;;;8.12;100.00
36600;BME280;35385;55.668;37.508;2023-04-05T02:46:00;99546.75;;;8.06;100.00
36600;BME280;35385;55.668;37.508;2023-04-05T02:47:01;99541.16;;;8.09;100.00
36600;BME280;35385;55.668;37.508;2023-04-05T02:48:01;99500.75;;;7.80;100.00
36600;BME280;35385;55.668;37.508;2023-04-05T02:49:02;99536.31;;;8.03;100.00
36600;BME280;35385;55.668;37.508;2023-04-05T02:50:02;99553.50;;;8.10;100.00
36600;BME280;35385;55.668;37.508;2023-04-05T02:51:03;99541.16;;;8.09;100.00
36600;BME280;35385;55.668;37.508;2023-04-05T02:52:04;99546.84;;;8.05;100.00
36600;BME280;35385;55.668;37.508;2023-04-05T02:53:04;99499.19;;;7.78;100.00
36600;BME280;35385;55.668;37.508;2023-04-05T02:54:05;99542.59;;;8.02;100.00
36600;BME280;35385;55.668;37.508;2023-04-05T02:55:06;99541.13;;;7.98;100.00
36600;BME280;35385;55.668;37.508;2023-04-05T02:56:06;99549.50;;;8.05;100.00
36600;BME280;35385;55.668;37.508;2023-04-05T02:57:07;99541.84;;;8.00;100.00
36600;BME280;35385;55.668;37.508;2023-04-05T02:58:10;99545.38;;;8.01;100.00
36600;BME280;35385;55.668;37.508;2023-04-05T02:59:13;99500.50;;;7.72;100.00
36600;BME280;35385;55.668;37.508;2023-04-05T03:00:15;99542.19;;;7.96;100.00
36600;BME280;35385;55.668;37.508;2023-04-05T03:01:15;99533.59;;;7.92;100.00
36600;BME280;35385;55.668;37.508;2023-04-05T03:02:17;99554.19;;;8.01;100.00
36600;BME280;35385;55.668;37.508;2023-04-05T03:03:18;99556.13;;;7.99;100.00
36600;BME280;35385;55.668;37.508;2023-04-05T03:04:18;99551.47;;;7.90;100.00
36600;BME280;35385;55.668;37.508;2023-04-05T03:05:19;99553.06;;;7.93;100.00
36600;BME280;35385;55.668;37.508;2023-04-05T03:06:20;99554.19;;;8.01;100.00
36600;BME280;35385;55.668;37.508;2023-04-05T03:07:21;99561.00;;;8.05;100.00
36600;BME280;35385;55.668;37.508;2023-04-05T03:08:24;99517.56;;;7.81;100.00
36600;BME280;35385;55.668;37.508;2023-04-05T03:09:25;99554.94;;;8.03;100.00
36600;BME280;35385;55.668;37.508;2023-04-05T03:10:28;99562.91;;;8.03;100.00
36600;BME280;35385;55.668;37.508;2023-04-05T03:11:32;99567.06;;;8.07;100.00
36600;BME280;35385;55.668;37.508;2023-04-05T03:12:32;99545.69;;;7.96;100.00
36600;BME280;35385;55.668;37.508;2023-04-05T03:13:33;99559.06;;;8.07;100.00
36600;BME280;35385;55.668;37.508;2023-04-05T03:14:33;99517.81;;;7.78;100.00
36600;BME280;35385;55.668;37.508;2023-04-05T03:15:34;99558.78;;;7.99;100.00
36600;BME280;35385;55.668;37.508;2023-04-05T03:16:35;99566.88;;;7.98;100.00
36600;BME280;35385;55.668;37.508;2023-04-05T03:17:35;99560.69;;;7.97;100.00
36600;BME280;35385;55.668;37.508;2023-04-05T03:18:36;99555.53;;;7.83;100.00
36600;BME280;35385;55.668;37.508;2023-04-05T03:19:37;99567.44;;;7.90;100.00
36600;BME280;35385;55.668;37.508;2023-04-05T03:20:37;99574.88;;;7.85;100.00
36600;BME280;35385;55.668;37.508;2023-04-05T03:21:39;99508.00;;;7.55;100.00
36600;BME280;35385;55.668;37.508;2023-04-05T03:22:40;99555.53;;;7.83;100.00
36600;BME280;35385;55.668;37.508;2023-04-05T03:23:40;99559.47;;;7.90;100.00
36600;BME280;35385;55.668;37.508;2023-04-05T03:24:42;99560.81;;;7.96;100.00
36600;BME280;35385;55.668;37.508;2023-04-05T03:25:43;99566.88;;;7.98;100.00
36600;BME280;35385;55.668;37.508;2023-04-05T03:26:44;99554.03;;;7.92;100.00
36600;BME280;35385;55.668;37.508;2023-04-05T03:27:45;99512.75;;;7.62;100.00
36600;BME280;35385;55.668;37.508;2023-04-05T03:28:46;99563.34;;;7.97;100.00
36600;BME280;35385;55.668;37.508;2023-04-05T03:29:47;99551.25;;;7.93;100.00
36600;BME280;35385;55.668;37.508;2023-04-05T03:30:48;99562.34;;;7.87;100.00
36600;BME280;35385;55.668;37.508;2023-04-05T03:31:49;99571.91;;;7.90;100.00
36600;BME280;35385;55.668;37.508;2023-04-05T03:32:49;99515.53;;;7.61;100.00
36600;BME280;35385;55.668;37.508;2023-04-05T03:33:50;99558.09;;;7.85;100.00
36600;BME280;35385;55.668;37.508;2023-04-05T03:34:50;99571.56;;;7.94;100.00
36600;BME280;35385;55.668;37.508;2023-04-05T03:35:51;99520.63;;;7.64;100.00
36600;BME280;35385;55.668;37.508;2023-04-05T03:36:51;99565.06;;;7.98;100.00
36600;BME280;35385;55.668;37.508;2023-04-05T03:37:52;99517.22;;;7.62;100.00
36600;BME280;35385;55.668;37.508;2023-04-05T03:38:53;99575.41;;;7.90;100.00
36600;BME280;35385;55.668;37.508;2023-04-05T03:39:55;99521.34;;;7.66;100.00
36600;BME280;35385;55.668;37.508;2023-04-05T03:40:55;99575.81;;;7.97;100.00
36600;BME280;35385;55.668;37.508;2023-04-05T03:41:56;99577.56;;;8.09;100.00
36600;BME280;35385;55.668;37.508;2023-04-05T03:42:57;99544.47;;;7.89;100.00
36600;BME280;35385;55.668;37.508;2023-04-05T03:43:57;99583.72;;;8.09;100.00
36600;BME280;35385;55.668;37.508;2023-04-05T03:44:58;99573.09;;;8.09;100.00
36600;BME280;35385;55.668;37.508;2023-04-05T03:45:59;99574.03;;;8.08;100.00
36600;BME280;35385;55.668;37.508;2023-04-05T03:46:59;99532.00;;;7.90;100.00
36600;BME280;35385;55.668;37.508;2023-04-05T03:48:00;99566.00;;;7.97;100.00
36600;BME280;35385;55.668;37.508;2023-04-05T03:49:02;99584.81;;;8.07;100.00
36600;BME280;35385;55.668;37.508;2023-04-05T03:50:03;99583.63;;;8.11;100.00
36600;BME280;35385;55.668;37.508;2023-04-05T03:51:04;99530.00;;;7.80;100.00
36600;BME280;35385;55.668;37.508;2023-04-05T03:52:05;99548.59;;;7.93;100.00
36600;BME280;35385;55.668;37.508;2023-04-05T03:53:05;99585.00;;;8.16;100.00
36600;BME280;35385;55.668;37.508;2023-04-05T03:54:06;99575.53;;;8.12;100.00
36600;BME280;35385;55.668;37.508;2023-04-05T03:55:07;99575.09;;;8.19;100.00
36600;BME280;35385;55.668;37.508;2023-04-05T03:56:08;99535.31;;;7.93;100.00
36600;BME280;35385;55.668;37.508;2023-04-05T03:57:09;99575.41;;;8.14;100.00
36600;BME280;35385;55.668;37.508;2023-04-05T03:58:10;99536.59;;;7.88;100.00
36600;BME280;35385;55.668;37.508;2023-04-05T03:59:10;99545.09;;;7.93;100.00
36600;BME280;35385;55.668;37.508;2023-04-05T04:00:11;99545.81;;;7.95;100.00
36600;BME280;35385;55.668;37.508;2023-04-05T04:01:16;99586.06;;;8.14;100.00
36600;BME280;35385;55.668;37.508;2023-04-05T04:02:17;99590.94;;;8.20;100.00
36600;BME280;35385;55.668;37.508;2023-04-05T04:03:18;99576.69;;;8.21;100.00
36600;BME280;35385;55.668;37.508;2023-04-05T04:04:18;99593.34;;;7.99;100.00
36600;BME280;35385;55.668;37.508;2023-04-05T04:05:20;99589.31;;;8.06;100.00
36600;BME280;35385;55.668;37.508;2023-04-05T04:06:20;99588.72;;;8.14;100.00
36600;BME280;35385;55.668;37.508;2023-04-05T04:07:21;99597.72;;;8.24;100.00
36600;BME280;35385;55.668;37.508;2023-04-05T04:08:22;99602.19;;;8.24;100.00
36600;BME280;35385;55.668;37.508;2023-04-05T04:09:23;99565.63;;;8.14;100.00
36600;BME280;35385;55.668;37.508;2023-04-05T04:10:24;99542.69;;;8.01;100.00
36600;BME280;35385;55.668;37.508;2023-04-05T04:11:24;99591.06;;;8.19;100.00
36600;BME280;35385;55.668;37.508;2023-04-05T04:12:25;99584.13;;;8.16;100.00
36600;BME280;35385;55.668;37.508;2023-04-05T04:13:26;99589.94;;;8.34;100.00
36600;BME280;35385;55.668;37.508;2023-04-05T04:14:26;99591.91;;;8.43;100.00
36600;BME280;35385;55.668;37.508;2023-04-05T04:15:27;99596.59;;;8.39;100.00
36600;BME280;35385;55.668;37.508;2023-04-05T04:16:27;99549.44;;;8.18;100.00
36600;BME280;35385;55.668;37.508;2023-04-05T04:17:29;99594.63;;;8.54;100.00
36600;BME280;35385;55.668;37.508;2023-04-05T04:18:30;99601.19;;;8.61;100.00
36600;BME280;35385;55.668;37.508;2023-04-05T04:19:31;99592.50;;;8.70;100.00
36600;BME280;35385;55.668;37.508;2023-04-05T04:20:31;99594.22;;;8.82;100.00
36600;BME280;35385;55.668;37.508;2023-04-05T04:21:32;99601.13;;;8.85;100.00
36600;BME280;35385;55.668;37.508;2023-04-05T04:22:33;99593.63;;;8.79;100.00
36600;BME280;35385;55.668;37.508;2023-04-05T04:23:33;99596.63;;;8.74;100.00
36600;BME280;35385;55.668;37.508;2023-04-05T04:24:37;99601.06;;;8.63;100.00
36600;BME280;35385;55.668;37.508;2023-04-05T04:25:39;99611.31;;;8.56;100.00
36600;BME280;35385;55.668;37.508;2023-04-05T04:26:45;99604.03;;;8.47;100.00
36600;BME280;35385;55.668;37.508;2023-04-05T04:27:46;99606.22;;;8.53;100.00
36600;BME280;35385;55.668;37.508;2023-04-05T04:28:47;99609.59;;;8.44;100.00
36600;BME280;35385;55.668;37.508;2023-04-05T04:29:48;99615.16;;;8.52;100.00
36600;BME280;35385;55.668;37.508;2023-04-05T04:30:48;99569.78;;;8.42;100.00
36600;BME280;35385;55.668;37.508;2023-04-05T04:31:49;99607.94;;;8.54;100.00
36600;BME280;35385;55.668;37.508;2023-04-05T04:32:50;99611.31;;;8.56;100.00
36600;BME280;35385;55.668;37.508;2023-04-05T04:33:53;99608.88;;;8.77;100.00
36600;BME280;35385;55.668;37.508;2023-04-05T04:34:54;99614.78;;;8.80;100.00
36600;BME280;35385;55.668;37.508;2023-04-05T04:35:55;99561.25;;;8.61;100.00
36600;BME280;35385;55.668;37.508;2023-04-05T04:36:55;99609.25;;;8.95;100.00
36600;BME280;35385;55.668;37.508;2023-04-05T04:38:02;99593.03;;;8.86;100.00
36600;BME280;35385;55.668;37.508;2023-04-05T04:39:02;99612.09;;;9.04;100.00
36600;BME280;35385;55.668;37.508;2023-04-05T04:40:06;99571.84;;;8.85;100.00
36600;BME280;35385;55.668;37.508;2023-04-05T04:41:09;99616.94;;;9.10;100.00
36600;BME280;35385;55.668;37.508;2023-04-05T04:42:10;99600.47;;;9.05;100.00
36600;BME280;35385;55.668;37.508;2023-04-05T04:43:15;99570.53;;;8.91;100.00
36600;BME280;35385;55.668;37.508;2023-04-05T04:44:18;99601.66;;;9.12;100.00
36600;BME280;35385;55.668;37.508;2023-04-05T04:45:27;99613.41;;;9.10;100.00
36600;BME280;35385;55.668;37.508;2023-04-05T04:46:29;99613.41;;;9.10;100.00
36600;BME280;35385;55.668;37.508;2023-04-05T04:47:33;99609.03;;;8.98;100.00
36600;BME280;35385;55.668;37.508;2023-04-05T04:48:34;99610.91;;;9.08;100.00
36600;BME280;35385;55.668;37.508;2023-04-05T04:49:37;99610.53;;;9.24;100.00
36600;BME280;35385;55.668;37.508;2023-04-05T04:50:38;99600.59;;;9.26;100.00
36600;BME280;35385;55.668;37.508;2023-04-05T04:51:39;99615.28;;;9.43;100.00
36600;BME280;35385;55.668;37.508;2023-04-05T04:52:40;99605.00;;;9.49;100.00
36600;BME280;35385;55.668;37.508;2023-04-05T04:53:41;99616.13;;;9.66;100.00
36600;BME280;35385;55.668;37.508;2023-04-05T04:54:41;99618.91;;;9.75;100.00
36600;BME280;35385;55.668;37.508;2023-04-05T04:55:42;99530.56;;;9.13;100.00
36600;BME280;35385;55.668;37.508;2023-04-05T04:56:42;99617.81;;;9.33;100.00
36600;BME280;35385;55.668;37.508;2023-04-05T04:57:43;99622.88;;;9.14;100.00
36600;BME280;35385;55.668;37.508;2023-04-05T04:58:44;99615.09;;;9.00;100.00
36600;BME280;35385;55.668;37.508;2023-04-05T04:59:44;99595.91;;;8.83;100.00
36600;BME280;35385;55.668;37.508;2023-04-05T05:00:45;99613.16;;;8.67;100.00
36600;BME280;35385;55.668;37.508;2023-04-05T05:01:46;99609.91;;;8.63;100.00
36600;BME280;35385;55.668;37.508;2023-04-05T05:02:46;99616.00;;;8.76;100.00
36600;BME280;35385;55.668;37.508;2023-04-05T05:03:47;99626.50;;;9.02;100.00
36600;BME280;35385;55.668;37.508;2023-04-05T05:04:48;99625.72;;;8.89;100.00
36600;BME280;35385;55.668;37.508;2023-04-05T05:05:49;99630.41;;;8.74;100.00
36600;BME280;35385;55.668;37.508;2023-04-05T05:06:53;99613.97;;;8.80;100.00
36600;BME280;35385;55.668;37.508;2023-04-05T05:07:53;99631.25;;;8.74;100.00
36600;BME280;35385;55.668;37.508;2023-04-05T05:08:54;99627.16;;;8.46;100.00
36600;BME280;35385;55.668;37.508;2023-04-05T05:09:55;99620.06;;;8.34;100.00
36600;BME280;35385;55.668;37.508;2023-04-05T05:10:56;99626.94;;;8.49;100.00
36600;BME280;35385;55.668;37.508;2023-04-05T05:11:57;99616.53;;;8.58;100.00
36600;BME280;35385;55.668;37.508;2023-04-05T05:13:00;99636.34;;;8.77;100.00
36600;BME280;35385;55.668;37.508;2023-04-05T05:14:00;99632.34;;;8.83;100.00
36600;BME280;35385;55.668;37.508;2023-04-05T05:15:01;99639.50;;;8.82;100.00
36600;BME280;35385;55.668;37.508;2023-04-05T05:16:02;99641.94;;;8.85;100.00
36600;BME280;35385;55.668;37.508;2023-04-05T05:17:03;99580.84;;;8.60;100.00
36600;BME280;35385;55.668;37.508;2023-04-05T05:18:05;99643.88;;;8.83;100.00
36600;BME280;35385;55.668;37.508;2023-04-05T05:19:06;99639.59;;;8.81;100.00
36600;BME280;35385;55.668;37.508;2023-04-05T05:20:08;99634.72;;;8.99;100.00
36600;BME280;35385;55.668;37.508;2023-04-05T05:21:11;99636.47;;;9.22;100.00
36600;BME280;35385;55.668;37.508;2023-04-05T05:22:12;99631.63;;;9.27;100.00
36600;BME280;35385;55.668;37.508;2023-04-05T05:23:12;99630.03;;;9.13;100.00
36600;BME280;35385;55.668;37.508;2023-04-05T05:24:13;99639.88;;;9.35;100.00
36600;BME280;35385;55.668;37.508;2023-04-05T05:25:13;99637.19;;;9.24;100.00
36600;BME280;35385;55.668;37.508;2023-04-05T05:26:14;99637.66;;;9.18;100.00
36600;BME280;35385;55.668;37.508;2023-04-05T05:27:15;99644.63;;;8.97;100.00
36600;BME280;35385;55.668;37.508;2023-04-05T05:28:15;99645.66;;;9.07;100.00
36600;BME280;35385;55.668;37.508;2023-04-05T05:29:17;99641.53;;;9.25;100.00
36600;BME280;35385;55.668;37.508;2023-04-05T05:30:19;99605.69;;;9.07;100.00
36600;BME280;35385;55.668;37.508;2023-04-05T05:31:20;99649.09;;;9.53;100.00